Latest Weather Observations for Horsham

IDV60801

Issued at 7:22 am EDT Saturday 16 October 2021 (issued every 10 minutes, with the page automatically refreshed every 10 minutes)

About weather observations | Map of weather stations | Latest weather observations for VIC | Other Formats
Station Details ID: 079100 Name: HORSHAM AERODROME Lat: -36.67 Lon: 142.17 Height: 133.8 m
Data from the previous 72 hours. | See also: Recent months at Horsham
Date/Time
EDT
Temp
°C
App
Temp
°C
Dew
Point
°C
Rel
Hum
%
Delta-T
°C
Wind Press
QNH
hPa
Press
MSL
hPa
Rain since
9am
mm
Dir  Spd
km/h
Gust
km/h
Spd
kts
Gust
kts
16/07:00am 8.8 3.9 8.5 98 0.1 WSW 24 32 13 17 1011.9 1011.9 0.2
16/06:39am 8.9 3.9 8.1 95 0.4 WSW 24 33 13 18 1011.5 1011.5 0.2
16/06:30am 9.0 4.4 8.1 94 0.4 WSW 22 30 12 16 1011.3 1011.3 0.2
16/06:00am 9.1 4.5 8.2 94 0.4 WSW 22 30 12 16 1010.9 1010.9 0.2
16/05:30am 8.9 4.8 8.5 97 0.2 WSW 20 28 11 15 1010.6 1010.5 0.2
16/05:00am 9.1 3.8 8.3 95 0.4 WSW 26 35 14 19 1010.4 1010.3 0.2
16/04:45am 9.3 3.5 8.1 92 0.6 SW 28 41 15 22 1010.4 1010.3 0.2
16/04:30am 9.5 5.1 7.4 87 1.0 WSW 20 30 11 16 1010.3 1010.2 0.2
16/04:00am 9.4 5.0 7.2 86 1.0 WSW 20 26 11 14 1010.1 1010.0 0.2
16/03:30am 9.8 4.8 6.5 80 1.5 WSW 22 28 12 15 1010.0 1009.9 0.2
16/03:00am 10.0 4.6 6.5 79 1.6 WSW 24 32 13 17 1010.1 1010.0 0.2
16/02:30am 10.0 5.0 6.5 79 1.6 WSW 22 33 12 18 1010.0 1009.9 0.2
16/02:00am 10.1 4.7 6.4 78 1.7 WSW 24 33 13 18 1009.9 1009.8 0.2
16/01:30am 10.2 4.1 6.5 78 1.7 SW 28 37 15 20 1010.0 1009.9 0.2
16/01:00am 10.3 4.2 6.8 79 1.7 WSW 28 37 15 20 1009.9 1009.8 0.2
16/12:30am 10.3 4.2 6.8 79 1.7 WSW 28 35 15 19 1009.8 1009.7 0.2
16/12:00am 10.3 4.3 7.0 80 1.6 SW 28 39 15 21 1009.9 1009.8 0.2
 
Date/Time
EDT
Temp
°C
App
Temp
°C
Dew
Point
°C
Rel
Hum
%
Delta-T
°C
Wind Press
QNH
hPa
Press
MSL
hPa
Rain since
9am
mm
Dir  Spd
km/h
Gust
km/h
Spd
kts
Gust
kts
15/11:30pm 10.2 3.9 7.6 84 1.3 SW 30 43 16 23 1010.0 1009.9 0.2
15/11:00pm 10.1 3.9 8.0 87 1.0 SW 30 39 16 21 1009.9 1009.8 0.2
15/10:30pm 10.2 4.4 7.8 85 1.2 SW 28 37 15 20 1009.8 1009.7 0.2
15/10:00pm 10.5 3.8 7.4 81 1.5 SW 32 44 17 24 1009.6 1009.5 0.2
15/09:30pm 10.9 4.1 6.8 76 2.0 WSW 32 43 17 23 1009.3 1009.2 0.2
15/09:24pm 10.9 4.8 6.8 76 2.0 WSW 28 39 15 21 1009.2 1009.1 0.2
15/09:00pm 10.5 7.2 7.9 84 1.3 WSW 15 20 8 11 1009.2 1009.1 0.2
15/08:30pm 10.4 6.7 7.8 84 1.3 SW 17 22 9 12 1008.8 1008.7 0.2
15/08:00pm 10.7 5.5 7.4 80 1.6 SW 24 35 13 19 1008.5 1008.4 0.2
15/07:34pm 11.0 4.6 6.9 76 2.0 SSW 30 48 16 26 1008.1 1008.0 0.2
15/07:30pm 11.1 4.1 7.0 76 2.0 SSW 33 48 18 26 1008.1 1008.0 0.2
15/07:00pm 11.6 4.8 6.7 72 2.3 SW 32 54 17 29 1007.7 1007.6 0.2
15/06:59pm 11.8 5.5 7.3 74 2.2 SW 30 50 16 27 1007.7 1007.6 0.2
15/06:30pm 11.8 6.4 8.1 78 1.8 WSW 26 39 14 21 1007.3 1007.2 0.2
15/06:00pm 12.7 5.9 6.7 67 2.9 SW 32 44 17 24 1006.8 1006.7 0.2
15/05:30pm 12.5 7.1 8.0 74 2.2 SSW 26 32 14 17 1006.5 1006.4 0.2
15/05:00pm 13.7 6.8 7.2 65 3.2 SW 33 46 18 25 1006.3 1006.2 0.2
15/04:30pm 14.1 5.5 6.5 60 3.7 SW 41 57 22 31 1006.0 1005.9 0.2
15/04:27pm 14.2 6.0 6.6 60 3.7 SW 39 57 21 31 1006.0 1005.9 0.2
15/04:00pm 15.5 7.1 7.3 58 4.1 SW 41 57 22 31 1005.8 1005.7 0.2
15/03:39pm 14.1 6.2 7.9 66 3.1 SW 39 59 21 32 1005.8 1005.7 0.2
15/03:30pm 14.6 8.1 9.0 69 2.9 SW 33 50 18 27 1005.8 1005.7 0.2
15/03:28pm 14.5 7.9 8.5 67 3.0 WSW 33 50 18 27 1005.6 1005.6 0.2
15/03:00pm 13.9 10.2 11.6 86 1.2 WSW 22 30 12 16 1005.6 1005.6 0.2
15/02:30pm 14.9 9.4 9.3 69 2.9 WSW 28 39 15 21 1006.1 1006.0 0.2
15/02:00pm 14.3 7.7 8.7 69 2.9 SW 33 43 18 23 1006.2 1006.1 0.2
15/01:30pm 15.1 9.1 7.2 59 3.9 WSW 28 41 15 22 1006.1 1006.0 0.2
15/01:00pm 15.4 8.4 5.9 53 4.6 WSW 32 46 17 25 1006.2 1006.1 0.2
15/12:30pm 15.3 8.9 6.8 57 4.2 WSW 30 39 16 21 1006.4 1006.3 0.2
15/12:00pm 15.3 8.8 6.3 55 4.4 SW 30 39 16 21 1006.4 1006.3 0.2
15/11:30am 14.4 8.2 7.7 64 3.3 SW 30 39 16 21 1006.8 1006.7 0.0
15/11:00am 13.5 7.8 8.4 71 2.6 SW 28 39 15 21 1006.9 1006.8 0.0
15/10:30am 13.6 8.8 8.9 73 2.4 SSW 24 35 13 19 1006.8 1006.7 0.0
15/10:00am 11.8 8.4 10.4 91 0.7 SSW 19 24 10 13 1006.8 1006.7 0.0
15/09:48am 11.8 8.3 11.0 95 0.4 SSW 20 26 11 14 1006.9 1006.8 0.0
15/09:30am 10.6 7.0 10.6 100 0.0 SSW 20 26 11 14 1006.8 1006.7 0.0
15/09:15am 9.5 6.6 9.5 100 0.0 SSW 15 20 8 11 1006.7 1006.6 0.0
15/09:00am 8.4 5.2 8.3 99 0.0 SSW 15 20 8 11 1006.5 1006.4 3.0
15/08:30am 7.0 2.5 6.9 99 0.0 SSW 20 24 11 13 1006.4 1006.3 3.0
15/08:22am 6.7 2.3 6.6 99 0.0 SSW 19 24 10 13 1006.4 1006.3 3.0
15/08:20am 6.7 2.7 6.6 99 0.0 SSW 17 22 9 12 1006.4 1006.3 3.0
15/08:00am 5.9 2.1 5.8 99 0.0 SW 15 19 8 10 1006.1 1006.0 3.0
15/07:46am 4.5 0.4 4.4 99 0.0 SW 15 19 8 10 1006.1 1006.0 3.0
15/07:44am 4.3 0.2 4.2 99 0.0 SW 15 19 8 10 1006.1 1006.0 3.0
15/07:41am 4.1 -0.1 4.0 99 0.0 SW 15 19 8 10 1006.1 1006.0 3.0
15/07:39am 4.1 0.3 4.0 99 0.0 SW 13 17 7 9 1006.0 1005.9 3.0
15/07:37am 3.9 0.1 3.8 99 0.0 SW 13 17 7 9 1005.9 1005.8 3.0
15/07:35am 4.0 0.2 3.9 99 0.0 SW 13 15 7 8 1005.9 1005.8 3.0
15/07:30am 4.1 0.7 4.0 99 0.0 SW 11 15 6 8 1005.9 1005.8 3.0
15/07:16am 3.4 0.6 3.3 99 0.0 SW 7 9 4 5 1005.5 1005.5 3.0
15/07:09am 3.5 0.4 3.4 99 0.0 SW 9 13 5 7 1005.6 1005.6 3.0
15/07:00am 3.4 -0.1 3.3 99 0.0 SW 11 13 6 7 1005.5 1005.5 3.0
15/06:59am 3.4 -0.1 3.3 99 0.0 SW 11 13 6 7 1005.5 1005.5 3.0
15/06:45am 2.6 -0.7 2.5 99 0.0 SW 9 11 5 6 1005.2 1005.2 3.0
15/06:30am 2.0 -2.2 1.9 99 0.0 SW 13 15 7 8 1005.0 1005.0 3.0
15/06:25am 2.3 -1.8 2.2 99 0.0 SW 13 15 7 8 1005.0 1005.0 3.0
15/06:14am 2.7 -0.6 2.6 99 0.0 SW 9 11 5 6 1004.7 1004.7 3.0
15/06:07am 2.8 -0.5 2.7 99 0.0 SW 9 13 5 7 1004.6 1004.6 3.0
15/06:00am 2.8 -0.8 2.7 99 0.0 SSW 11 11 6 6 1004.6 1004.6 3.0
15/05:57am 2.5 -1.2 2.4 99 0.0 SSW 11 11 6 6 1004.6 1004.6 3.0
15/05:48am 2.4 -1.3 2.3 99 0.0 SSW 11 13 6 7 1004.5 1004.5 3.0
15/05:39am 2.9 -0.7 2.8 99 0.0 SW 11 11 6 6 1004.3 1004.2 3.0
15/05:30am 3.1 -0.5 3.0 99 0.0 SW 11 13 6 7 1004.1 1004.0 3.0
15/05:17am 2.1 -1.7 2.0 99 0.0 SW 11 13 6 7 1004.0 1003.9 3.0
15/05:00am 3.3 -0.6 3.2 99 0.0 SW 13 15 7 8 1003.8 1003.7 3.0
15/04:56am 3.4 -0.9 3.3 99 0.0 WSW 15 17 8 9 1003.8 1003.7 3.0
15/04:30am 3.5 -0.4 3.4 99 0.0 WSW 13 19 7 10 1003.7 1003.6 3.0
15/04:27am 4.0 0.2 3.9 99 0.0 WSW 13 15 7 8 1003.6 1003.5 3.0
15/04:26am 4.0 0.2 3.9 99 0.0 SW 13 15 7 8 1003.6 1003.5 3.0
15/04:16am 4.0 0.6 3.9 99 0.0 SW 11 13 6 7 1003.6 1003.5 3.0
15/04:07am 4.4 0.7 4.3 99 0.0 WSW 13 15 7 8 1003.6 1003.5 3.0
15/04:00am 4.1 0.3 4.0 99 0.0 WSW 13 13 7 7 1003.6 1003.5 3.0
15/03:58am 3.8 0.3 3.7 99 0.0 W 11 13 6 7 1003.6 1003.5 3.0
15/03:57am 3.8 0.3 3.7 99 0.0 W 11 13 6 7 1003.6 1003.5 3.0
15/03:50am 3.1 -0.1 3.0 99 0.0 WSW 9 13 5 7 1003.7 1003.6 3.0
15/03:44am 3.6 0.9 3.5 99 0.0 SW 7 9 4 5 1003.6 1003.5 3.0
15/03:30am 3.4 0.8 3.3 99 0.0 W 6 9 3 5 1003.7 1003.6 3.0
15/03:13am 2.8 -0.1 2.7 99 0.0 NW 7 13 4 7 1003.8 1003.7 3.0
15/03:05am 2.9 1.4 2.8 99 0.0 CALM 0 0 0 0 1003.8 1003.7 3.0
15/03:00am 2.9 1.4 2.8 99 0.0 CALM 0 0 0 0 1003.9 1003.8 3.0
15/02:58am 2.8 1.2 2.7 99 0.0 CALM 0 0 0 0 1003.9 1003.8 3.0
15/02:44am 3.0 0.3 2.9 99 0.0 N 6 7 3 4 1004.0 1003.9 3.0
15/02:38am 2.8 0.1 2.7 99 0.0 WNW 6 7 3 4 1004.0 1003.9 3.0
15/02:35am 2.9 0.6 2.8 99 0.0 WSW 4 7 2 4 1004.0 1003.9 3.0
15/02:30am 4.1 2.4 4.0 99 0.0 SW 2 6 1 3 1004.0 1003.9 3.0
15/02:21am 3.6 1.1 3.5 99 0.0 SSW 6 11 3 6 1004.0 1003.9 3.0
15/02:12am 3.8 0.3 3.7 99 0.0 SSW 11 13 6 7 1004.1 1004.0 3.0
15/02:00am 4.5 1.2 4.4 99 0.0 SW 11 13 6 7 1004.1 1004.0 3.0
15/01:48am 3.9 0.1 3.8 99 0.0 SSW 13 15 7 8 1004.1 1004.0 3.0
15/01:30am 4.4 1.1 4.3 99 0.0 SW 11 13 6 7 1004.2 1004.1 3.0
15/01:11am 5.2 1.6 5.1 99 0.0 SW 13 19 7 10 1004.3 1004.2 3.0
15/01:00am 4.9 2.0 4.8 99 0.0 SW 9 9 5 5 1004.4 1004.3 3.0
15/12:47am 5.1 1.5 5.0 99 0.0 SW 13 20 7 11 1004.4 1004.3 3.0
15/12:30am 5.0 1.4 4.9 99 0.0 S 13 17 7 9 1004.2 1004.1 3.0
15/12:22am 5.1 2.3 5.0 99 0.0 SSW 9 11 5 6 1004.2 1004.1 3.0
15/12:00am 5.2 3.0 5.1 99 0.0 SSE 6 7 3 4 1004.5 1004.5 3.0
 
Date/Time
EDT
Temp
°C
App
Temp
°C
Dew
Point
°C
Rel
Hum
%
Delta-T
°C
Wind Press
QNH
hPa
Press
MSL
hPa
Rain since
9am
mm
Dir  Spd
km/h
Gust
km/h
Spd
kts
Gust
kts
14/11:59pm 5.1 2.8 5.0 99 0.0 SE 6 7 3 4 1004.5 1004.5 3.0
14/11:56pm 4.3 1.7 4.2 99 0.0 ESE 7 9 4 5 1004.6 1004.6 3.0
14/11:30pm 5.1 2.8 5.0 99 0.0 NNE 6 7 3 4 1004.6 1004.6 3.0
14/11:29pm 5.2 3.0 5.1 99 0.0 NNE 6 7 3 4 1004.7 1004.7 3.0
14/11:25pm 4.6 2.6 4.5 99 0.0 N 4 6 2 3 1004.7 1004.7 3.0
14/11:22pm 4.9 3.0 4.8 99 0.0 N 4 6 2 3 1004.7 1004.7 3.0
14/11:00pm 5.0 3.9 4.9 99 0.0 CALM 0 0 0 0 1004.9 1004.9 2.8
14/10:58pm 5.5 4.5 5.4 99 0.0 CALM 0 0 0 0 1004.9 1004.9 2.8
14/10:35pm 5.9 4.9 5.8 99 0.0 CALM 0 4 0 2 1004.9 1004.9 2.8
14/10:34pm 5.9 4.9 5.8 99 0.0 CALM 0 6 0 3 1004.9 1004.9 2.8
14/10:30pm 5.7 4.3 5.6 99 0.0 N 2 7 1 4 1004.9 1004.9 2.8
14/10:19pm 6.2 4.0 6.1 99 0.0 NNE 7 7 4 4 1004.9 1004.9 2.8
14/10:00pm 6.5 4.5 6.4 99 0.0 E 6 7 3 4 1004.7 1004.7 2.8
14/09:30pm 6.3 3.0 6.2 99 0.0 E 13 15 7 8 1004.4 1004.3 2.8
14/09:00pm 7.1 3.6 7.0 99 0.0 ENE 15 17 8 9 1004.2 1004.1 2.8
14/08:30pm 7.1 4.7 7.0 99 0.0 SE 9 11 5 6 1004.0 1003.9 2.8
14/08:00pm 7.9 5.7 7.8 99 0.0 SSE 9 9 5 5 1003.9 1003.8 2.8
14/07:30pm 9.0 7.6 8.7 98 0.1 SSE 6 7 3 4 1003.9 1003.8 2.8
14/07:00pm 9.5 7.7 9.4 99 0.1 ENE 9 13 5 7 1004.0 1003.9 2.8
14/06:30pm 9.6 7.8 9.3 98 0.1 ENE 9 13 5 7 1004.0 1003.9 2.8
14/06:00pm 9.5 6.9 9.2 98 0.1 NW 13 17 7 9 1004.1 1004.0 2.4
14/05:30pm 9.7 5.7 9.2 97 0.2 NW 20 26 11 14 1004.1 1004.0 1.0
14/05:00pm 10.4 5.3 7.8 84 1.3 N 24 33 13 18 1004.0 1003.9 0.2
14/04:47pm 11.4 6.4 6.5 72 2.3 E 22 43 12 23 1003.7 1003.6 0.2
14/04:30pm 14.3 11.2 7.4 63 3.4 SE 13 19 7 10 1003.3 1003.2 0.2
14/04:00pm 14.8 11.1 7.8 63 3.5 SE 17 22 9 12 1003.3 1003.2 0.2
14/03:30pm 15.3 11.0 7.8 61 3.8 SSE 20 28 11 15 1003.3 1003.2 0.2
14/03:00pm 14.0 9.8 8.4 69 2.8 S 20 26 11 14 1003.6 1003.5 0.2
14/02:30pm 13.0 7.3 8.3 73 2.3 SSW 28 33 15 18 1003.9 1003.8 0.2
14/02:00pm 14.8 11.4 5.9 55 4.3 NNE 13 17 7 9 1003.9 1003.8 0.2
14/01:30pm 14.5 10.9 10.7 78 2.0 NNE 20 28 11 15 1004.1 1004.0 0.2
14/01:00pm 12.9 9.2 9.5 80 1.7 N 19 24 10 13 1004.5 1004.5 0.2
14/12:30pm 12.9 11.5 9.4 79 1.8 NNE 7 11 4 6 1004.6 1004.6 0.0
14/12:00pm 12.1 9.2 9.7 85 1.2 NE 15 19 8 10 1004.9 1004.9 0.0
14/11:36am 11.8 9.4 9.9 88 1.0 NNE 13 17 7 9 1004.9 1004.9 0.0
14/11:30am 11.9 9.6 10.3 90 0.8 NNE 13 17 7 9 1004.9 1004.9 0.0
14/11:00am 11.3 9.6 9.9 91 0.7 NNE 9 15 5 8 1004.8 1004.8 0.0
14/10:30am 10.6 8.7 10.4 99 0.1 ENE 11 13 6 7 1004.9 1004.9 0.0
14/10:00am 8.9 6.9 8.8 99 0.0 E 9 15 5 8 1004.9 1004.9 0.0
14/09:34am 8.6 6.2 8.5 99 0.0 E 11 15 6 8 1005.0 1005.0 0.0
14/09:30am 8.5 6.0 8.4 99 0.0 E 11 15 6 8 1004.9 1004.9 0.0
14/09:00am 7.8 5.2 7.7 99 0.0 ENE 11 15 6 8 1004.9 1004.9 5.6
14/08:38am 7.0 4.2 6.9 99 0.0 NE 11 13 6 7 1004.9 1004.9 5.6
14/08:30am 7.0 4.6 6.9 99 0.0 NE 9 13 5 7 1004.9 1004.9 5.6
14/08:15am 6.9 4.5 6.8 99 0.0 ENE 9 13 5 7 1005.0 1005.0 5.6
14/08:00am 6.3 3.7 6.2 99 0.0 NE 9 11 5 6 1005.1 1005.1 5.6
14/07:59am 6.3 3.7 6.2 99 0.0 NE 9 11 5 6 1005.1 1005.1 5.6
14/07:55am 6.4 3.8 6.3 99 0.0 NE 9 11 5 6 1005.0 1005.0 5.6
14/07:30am 5.6 2.9 5.5 99 0.0 E 9 11 5 6 1004.8 1004.8 5.6
14/07:00am 5.5 2.8 5.4 99 0.0 E 9 13 5 7 1004.7 1004.7 5.4
14/06:30am 5.3 2.1 5.2 99 0.0 ESE 11 13 6 7 1004.6 1004.6 5.4
14/06:00am 4.6 1.7 4.5 99 0.0 E 9 11 5 6 1004.4 1004.3 5.4
14/05:36am 3.9 0.8 3.8 99 0.0 ENE 9 11 5 6 1004.3 1004.2 5.4
14/05:30am 3.8 0.7 3.7 99 0.0 ENE 9 11 5 6 1004.2 1004.1 5.4
14/05:14am 2.8 -0.1 2.7 99 0.0 ESE 7 9 4 5 1004.2 1004.1 5.4
14/05:00am 2.4 0.4 2.3 99 0.0 SE 2 9 1 5 1004.4 1004.3 5.4
14/04:30am 3.6 1.4 3.5 99 0.0 N 4 6 2 3 1004.3 1004.2 5.4
14/04:00am 3.7 1.2 3.6 99 0.0 NE 6 9 3 5 1004.9 1004.9 5.4
14/03:37am 2.6 0.3 2.5 99 0.0 ESE 4 6 2 3 1005.1 1005.1 5.4
14/03:30am 2.5 -0.2 2.4 99 0.0 ESE 6 7 3 4 1005.2 1005.2 5.4
14/03:29am 2.4 -0.4 2.3 99 0.0 ESE 6 7 3 4 1005.2 1005.2 5.4
14/03:11am 3.5 0.4 3.4 99 0.0 NE 9 9 5 5 1005.4 1005.4 5.4
14/03:00am 2.9 0.0 2.8 99 0.0 NE 7 9 4 5 1005.5 1005.5 5.4
14/02:30am 3.9 0.5 3.8 99 0.0 N 11 13 6 7 1005.6 1005.6 5.4
14/02:25am 3.8 0.7 3.7 99 0.0 N 9 13 5 7 1005.8 1005.7 5.4
14/02:24am 3.9 0.8 3.8 99 0.0 N 9 13 5 7 1005.9 1005.8 5.4
14/02:00am 5.1 2.8 5.0 99 0.0 N 6 6 3 3 1006.0 1005.9 5.4
14/01:48am 5.1 2.8 5.0 99 0.0 N 6 7 3 4 1006.2 1006.1 5.4
14/01:30am 5.2 3.0 5.1 99 0.0 N 6 7 3 4 1006.3 1006.2 5.4
14/01:25am 5.3 3.1 5.2 99 0.0 N 6 7 3 4 1006.4 1006.3 5.4
14/01:13am 5.7 3.9 5.6 99 0.0 N 4 7 2 4 1006.3 1006.2 5.4
14/01:00am 6.1 5.2 6.0 99 0.0 CALM 0 0 0 0 1006.2 1006.1 5.4
14/12:57am 6.1 5.2 6.0 99 0.0 CALM 0 0 0 0 1006.3 1006.2 5.4
14/12:55am 6.2 5.3 6.1 99 0.0 CALM 0 0 0 0 1006.3 1006.2 5.4
14/12:41am 6.4 5.6 6.3 99 0.0 CALM 0 0 0 0 1006.3 1006.2 5.4
14/12:38am 6.6 5.8 6.5 99 0.0 CALM 0 0 0 0 1006.3 1006.2 5.4
14/12:30am 6.7 5.5 6.6 99 0.0 ESE 2 7 1 4 1006.3 1006.2 5.4
14/12:27am 6.8 5.3 6.7 99 0.0 ESE 4 7 2 4 1006.3 1006.2 5.4
14/12:00am 6.9 4.8 6.8 99 0.0 E 7 9 4 5 1006.2 1006.1 5.4
 
Date/Time
EDT
Temp
°C
App
Temp
°C
Dew
Point
°C
Rel
Hum
%
Delta-T
°C
Wind Press
QNH
hPa
Press
MSL
hPa
Rain since
9am
mm
Dir  Spd
km/h
Gust
km/h
Spd
kts
Gust
kts
13/11:37pm 7.4 5.1 7.3 99 0.0 E 9 11 5 6 1006.5 1006.4 5.4
13/11:30pm 7.3 4.9 7.2 99 0.0 E 9 11 5 6 1006.6 1006.5 5.4
13/11:00pm 8.3 7.1 8.2 99 0.0 ESE 4 7 2 4 1006.7 1006.6 5.4
13/10:30pm 8.1 6.5 8.0 99 0.0 ESE 6 7 3 4 1006.6 1006.5 5.4
13/10:14pm 8.4 6.7 8.3 99 0.0 ESE 7 7 4 4 1006.6 1006.5 5.4
13/10:08pm 8.2 6.4 8.1 99 0.0 ESE 7 9 4 5 1006.7 1006.6 5.4
13/10:00pm 7.9 5.7 7.8 99 0.0 ESE 9 11 5 6 1006.8 1006.7 5.4
13/09:30pm 7.9 5.7 7.8 99 0.0 E 9 13 5 7 1006.8 1006.7 5.4
13/09:00pm 8.2 6.1 8.1 99 0.0 ENE 9 9 5 5 1006.5 1006.4 5.4
13/08:30pm 9.4 7.6 9.3 99 0.0 N 9 9 5 5 1006.1 1006.0 5.4
13/08:00pm 9.8 8.0 9.5 98 0.2 N 9 9 5 5 1005.9 1005.8 5.4
13/07:35pm 10.6 9.3 10.0 96 0.3 N 7 9 4 5 1006.0 1005.9 5.4
13/07:30pm 10.8 9.5 10.0 95 0.4 N 7 9 4 5 1006.0 1005.9 5.4
13/07:02pm 10.9 9.8 10.1 95 0.4 NNW 6 7 3 4 1006.1 1006.0 5.4
13/07:00pm 10.9 9.8 10.1 95 0.4 NNW 6 7 3 4 1006.1 1006.0 5.4
13/06:30pm 11.0 9.8 10.2 95 0.4 NE 7 9 4 5 1005.2 1005.2 5.0
13/06:00pm 10.9 10.6 10.0 94 0.5 ENE 2 6 1 3 1004.8 1004.8 5.0
13/05:30pm 10.7 9.4 10.1 96 0.3 WNW 7 11 4 6 1005.1 1005.1 5.0
13/05:00pm 10.7 7.9 10.1 96 0.3 W 15 19 8 10 1005.5 1005.5 4.2
13/04:30pm 11.0 8.0 10.5 97 0.3 W 17 20 9 11 1005.6 1005.6 4.0
13/04:00pm 11.5 8.0 10.9 96 0.3 W 20 28 11 15 1005.8 1005.7 3.0
13/03:30pm 12.2 8.9 10.9 92 0.7 W 19 24 10 13 1005.0 1005.0 2.4
13/03:00pm 12.7 11.2 10.6 87 1.1 WSW 9 15 5 8 1005.2 1005.2 1.2
13/02:30pm 12.2 9.7 10.9 92 0.7 WNW 15 20 8 11 1005.0 1005.0 0.8
13/02:08pm 13.9 5.7 9.7 76 2.2 NNW 43 67 23 36 1004.7 1004.7 0.0
13/02:07pm 14.2 6.4 9.6 74 2.4 NNW 41 67 22 36 1004.6 1004.6 0.0
13/02:02pm 16.5 11.0 9.0 61 3.9 N 28 52 15 28 1003.9 1003.8 0.0
13/02:00pm 17.7 12.9 8.8 56 4.7 N 24 32 13 17 1003.9 1003.8 0.0
13/01:30pm 19.3 12.4 6.4 43 6.5 N 32 41 17 22 1004.0 1003.9 0.0
13/01:00pm 20.2 13.1 7.9 45 6.4 N 35 46 19 25 1004.4 1004.3 0.0
13/12:30pm 20.4 12.5 6.0 39 7.2 N 37 48 20 26 1004.9 1004.9 0.0
13/12:00pm 19.2 12.3 8.8 51 5.5 NNE 35 50 19 27 1005.4 1005.4 0.0
13/11:30am 19.7 13.6 10.4 55 5.1 NNE 33 46 18 25 1005.9 1005.8 0.0
13/11:00am 17.9 11.1 10.8 63 3.9 NNE 37 50 20 27 1006.3 1006.2 0.0
13/10:30am 17.2 10.2 11.2 68 3.3 NNE 39 48 21 26 1006.6 1006.5 0.0
13/10:00am 16.5 10.2 11.0 70 3.0 NNE 35 46 19 25 1007.0 1006.9 0.0
13/09:30am 15.1 9.1 10.7 75 2.3 NNE 33 44 18 24 1007.5 1007.4 0.0
13/09:00am 13.7 8.0 11.0 84 1.4 NNE 32 44 17 24 1007.7 1007.6 0.0
13/08:30am 12.0 6.0 10.2 89 0.9 NE 32 43 17 23 1007.5 1007.4 0.0
13/08:00am 10.6 5.3 9.8 95 0.4 NE 28 37 15 20 1007.8 1007.7 0.0
13/07:30am 9.4 4.3 9.1 98 0.1 NE 26 32 14 17 1007.9 1007.8 0.0

Other formats

Comma delimited format used in spreadsheet applications
http://www.bom.gov.au/fwo/IDV60801/IDV60801.95839.axf

JavaScript Object Notation format (JSON) in row-major order
http://www.bom.gov.au/fwo/IDV60801/IDV60801.95839.json

Data quality

Most of these data are generated automatically and are frequently updated. Quality checks on data are not normally performed. It is possible for incorrect values to appear. Refer to information at About Latest Weather Observations and please check the disclaimer before using these data.